Time;durP1;ratioP1;P1;durP2;ratioP2;P2;SDS_P1;SDS_P2;PMS_P1;PMS_P2;Temp;Humidity;BMP_temperature;BMP_pressure;BME280_temperature;BME280_humidity;BME280_pressure;Samples;Min_cycle;Max_cycle;Signal;HPM_P1;HPM_P2
2023/10/26 00:02:11;;;;;;;12.68;10.23;;;9.30;99.90;;;;;;5081520;28;20058;-83
2023/10/26 00:04:36;;;;;;;17.50;10.18;;;9.30;99.90;;;;;;5060794;28;20451;-83
2023/10/26 00:07:04;;;;;;;17.77;9.48;;;9.30;99.90;;;;;;5052479;28;20052;-83
2023/10/26 00:09:29;;;;;;;14.75;9.98;;;9.30;99.90;;;;;;5077562;28;20114;-83
2023/10/26 00:11:58;;;;;;;12.93;9.93;;;9.30;99.90;;;;;;5086325;28;20547;-83
2023/10/26 00:14:24;;;;;;;13.07;10.30;;;9.30;99.90;;;;;;5103281;28;20203;-83
2023/10/26 00:16:49;;;;;;;13.48;10.13;;;9.30;99.90;;;;;;5085336;28;20466;-84
2023/10/26 00:19:15;;;;;;;15.27;10.27;;;9.30;99.90;;;;;;5078696;28;20433;-82
2023/10/26 00:21:41;;;;;;;15.98;10.07;;;9.30;99.90;;;;;;5062840;28;20651;-82
2023/10/26 00:24:07;;;;;;;16.48;9.88;;;9.30;99.90;;;;;;5090921;28;20036;-83
2023/10/26 00:26:33;;;;;;;11.52;9.73;;;9.20;99.90;;;;;;5081796;28;20032;-83
2023/10/26 00:29:23;;;;;;;12.63;9.05;;;9.30;99.90;;;;;;5065563;28;20028;-82
2023/10/26 00:31:48;;;;;;;14.90;10.20;;;9.30;99.90;;;;;;5095381;28;20055;-83
2023/10/26 00:34:15;;;;;;;15.13;11.02;;;9.30;99.90;;;;;;5078305;28;20073;-82
2023/10/26 00:36:40;;;;;;;16.42;10.85;;;9.30;99.90;;;;;;5085389;28;20024;-83
2023/10/26 00:39:06;;;;;;;17.42;10.40;;;9.30;99.90;;;;;;5082421;28;20092;-83
2023/10/26 00:41:32;;;;;;;14.00;10.48;;;9.30;99.90;;;;;;5070966;28;20066;-82
2023/10/26 00:44:04;;;;;;;16.63;10.55;;;9.20;99.90;;;;;;5083082;28;20039;-83
2023/10/26 00:46:31;;;;;;;15.27;11.18;;;9.20;99.90;;;;;;5081083;28;20056;-83
2023/10/26 00:48:58;;;;;;;14.95;10.85;;;9.30;99.90;;;;;;5091353;28;20042;-83
2023/10/26 00:51:24;;;;;;;14.93;11.07;;;9.30;99.90;;;;;;5083493;28;20252;-83
2023/10/26 00:53:50;;;;;;;12.05;10.00;;;9.20;99.90;;;;;;5080341;28;20090;-82
2023/10/26 00:56:20;;;;;;;12.52;9.27;;;9.20;99.90;;;;;;5084363;28;20382;-83
2023/10/26 00:58:47;;;;;;;13.60;9.40;;;9.20;99.90;;;;;;5120439;27;20123;-83
2023/10/26 01:01:14;;;;;;;11.73;8.77;;;9.20;99.90;;;;;;5083568;28;20099;-82
2023/10/26 01:03:41;;;;;;;11.77;8.63;;;9.20;99.90;;;;;;5076328;28;20027;-83
2023/10/26 01:06:08;;;;;;;12.73;9.10;;;9.20;99.90;;;;;;5117854;27;20718;-83
2023/10/26 01:08:34;;;;;;;11.48;10.00;;;9.20;99.90;;;;;;5082850;28;20731;-82
2023/10/26 01:11:01;;;;;;;11.23;9.95;;;9.20;99.90;;;;;;5085231;28;20036;-82
2023/10/26 01:13:29;;;;;;;12.75;10.07;;;9.20;99.90;;;;;;5089466;28;20108;-83
2023/10/26 01:15:56;;;;;;;15.60;10.15;;;9.20;99.90;;;;;;5077744;28;20063;-83
2023/10/26 01:18:21;;;;;;;15.10;9.38;;;9.20;99.90;;;;;;5083312;28;20032;-83
2023/10/26 01:20:48;;;;;;;15.98;9.00;;;9.10;99.90;;;;;;5063162;28;20024;-83
2023/10/26 01:23:14;;;;;;;12.82;9.68;;;9.20;99.90;;;;;;5102763;28;20085;-83
2023/10/26 01:25:40;;;;;;;13.85;9.57;;;9.10;99.90;;;;;;5079561;28;20032;-82
2023/10/26 01:28:07;;;;;;;13.93;10.13;;;9.10;99.90;;;;;;5117689;27;20497;-83
2023/10/26 01:30:34;;;;;;;12.13;8.77;;;9.10;99.90;;;;;;5080724;28;20082;-82
2023/10/26 01:33:00;;;;;;;14.40;9.88;;;9.10;99.90;;;;;;5085551;28;20081;-83
2023/10/26 01:35:25;;;;;;;14.90;10.02;;;9.10;99.90;;;;;;5081309;28;20028;-84
2023/10/26 01:37:53;;;;;;;14.35;10.57;;;9.00;99.90;;;;;;5071629;28;20028;-82
2023/10/26 01:40:19;;;;;;;14.38;9.48;;;9.10;99.90;;;;;;5082866;28;20032;-83
2023/10/26 01:42:44;;;;;;;16.23;9.40;;;9.10;99.90;;;;;;5106259;28;20118;-82
2023/10/26 01:45:10;;;;;;;14.65;9.15;;;9.00;99.90;;;;;;5084047;28;20029;-83
2023/10/26 01:47:37;;;;;;;14.05;9.73;;;9.10;99.90;;;;;;5083318;28;20023;-83
2023/10/26 01:50:04;;;;;;;16.08;10.63;;;9.10;99.90;;;;;;5077287;28;20027;-83
2023/10/26 01:52:29;;;;;;;15.95;10.23;;;9.00;99.90;;;;;;5069954;28;20032;-82
2023/10/26 01:54:55;;;;;;;13.05;9.10;;;9.00;99.90;;;;;;5112294;27;20039;-82
2023/10/26 01:57:21;;;;;;;13.48;9.32;;;9.00;99.90;;;;;;5121822;27;20024;-83
2023/10/26 01:59:46;;;;;;;14.20;9.65;;;9.00;99.90;;;;;;5063538;28;20024;-83
2023/10/26 02:02:12;;;;;;;13.38;9.07;;;9.00;99.90;;;;;;5082887;28;20784;-82
2023/10/26 02:04:38;;;;;;;18.20;10.82;;;9.00;99.90;;;;;;5076492;28;20028;-83
2023/10/26 02:07:03;;;;;;;14.25;9.50;;;9.00;99.90;;;;;;5085723;28;20088;-82
2023/10/26 02:09:29;;;;;;;14.45;10.02;;;9.00;99.90;;;;;;5081641;28;20035;-83
2023/10/26 02:11:55;;;;;;;13.23;9.30;;;9.00;99.90;;;;;;5087101;28;20016;-83
2023/10/26 02:14:20;;;;;;;13.45;9.35;;;9.00;99.90;;;;;;5082227;28;20049;-82
2023/10/26 02:16:46;;;;;;;13.32;9.82;;;9.00;99.90;;;;;;5081886;28;20098;-83
2023/10/26 02:19:12;;;;;;;14.77;9.15;;;9.00;99.90;;;;;;5083273;28;20035;-83
2023/10/26 02:21:38;;;;;;;14.45;9.70;;;9.00;99.90;;;;;;5099289;28;20059;-83
2023/10/26 02:24:04;;;;;;;11.80;9.23;;;9.00;99.90;;;;;;5097466;28;20074;-83
2023/10/26 02:26:30;;;;;;;13.65;9.57;;;8.90;99.90;;;;;;5084139;28;20459;-83
2023/10/26 02:28:55;;;;;;;13.95;9.82;;;8.90;99.90;;;;;;5060053;28;20024;-83
2023/10/26 02:31:21;;;;;;;14.32;8.93;;;8.90;99.90;;;;;;5085358;28;20027;-82
2023/10/26 02:33:47;;;;;;;12.40;9.00;;;9.00;99.90;;;;;;5061970;28;20450;-83
2023/10/26 02:36:12;;;;;;;14.35;9.38;;;9.00;99.90;;;;;;5080922;28;20111;-83
2023/10/26 02:38:38;;;;;;;15.57;9.27;;;9.00;99.90;;;;;;5078722;28;20058;-82
2023/10/26 02:41:05;;;;;;;16.85;10.02;;;8.90;99.90;;;;;;5117875;27;20043;-82
2023/10/26 02:43:31;;;;;;;24.15;12.18;;;8.90;99.90;;;;;;5080231;28;20486;-83
2023/10/26 02:46:02;;;;;;;15.07;9.88;;;8.90;99.90;;;;;;5086027;28;20119;-83
2023/10/26 02:48:27;;;;;;;13.65;10.05;;;8.90;99.90;;;;;;5103450;28;20777;-83
2023/10/26 02:50:53;;;;;;;14.48;10.35;;;8.90;99.90;;;;;;5063502;28;20024;-83
2023/10/26 02:53:56;;;;;;;14.98;10.35;;;8.90;99.90;;;;;;5082642;28;20027;-82
2023/10/26 02:56:22;;;;;;;19.08;9.45;;;8.90;99.90;;;;;;5070269;28;20024;-83
2023/10/26 02:58:48;;;;;;;15.40;10.63;;;8.90;99.90;;;;;;5086673;28;20121;-83
2023/10/26 03:01:14;;;;;;;13.13;9.80;;;8.90;99.90;;;;;;5081537;28;20131;-83
2023/10/26 03:03:39;;;;;;;13.13;9.90;;;8.90;99.90;;;;;;5076152;28;20040;-82
2023/10/26 03:06:05;;;;;;;13.68;8.55;;;8.90;99.90;;;;;;5082168;28;20032;-83
2023/10/26 03:08:31;;;;;;;12.57;8.88;;;8.90;99.90;;;;;;5081793;28;20092;-83
2023/10/26 03:10:56;;;;;;;11.38;8.57;;;8.90;99.90;;;;;;5075449;28;20056;-83
2023/10/26 03:13:22;;;;;;;17.83;9.48;;;8.90;99.90;;;;;;5103755;28;20027;-83
2023/10/26 03:15:48;;;;;;;11.52;9.45;;;8.90;99.90;;;;;;5076188;28;20020;-83
2023/10/26 03:18:14;;;;;;;17.45;9.18;;;8.90;99.90;;;;;;5084028;28;20478;-83
2023/10/26 03:20:52;;;;;;;11.05;8.57;;;8.90;99.90;;;;;;5080476;28;20024;-83
2023/10/26 03:23:18;;;;;;;12.57;8.25;;;8.80;99.90;;;;;;5098077;28;20122;-83
2023/10/26 03:26:02;;;;;;;11.02;8.18;;;8.90;99.90;;;;;;5078095;28;20059;-83
2023/10/26 03:28:28;;;;;;;12.57;9.30;;;8.90;99.90;;;;;;5097172;28;20031;-83
2023/10/26 03:30:53;;;;;;;11.82;9.00;;;8.90;99.90;;;;;;5080242;28;20028;-83
2023/10/26 03:33:19;;;;;;;13.48;9.70;;;8.90;99.90;;;;;;5094832;28;20077;-83
2023/10/26 03:35:45;;;;;;;14.95;11.60;;;8.90;99.90;;;;;;5102845;28;20065;-83
2023/10/26 03:38:10;;;;;;;16.08;11.00;;;8.90;99.90;;;;;;5079843;28;20028;-83
2023/10/26 03:40:36;;;;;;;16.58;11.52;;;8.90;99.90;;;;;;5085239;28;20028;-83
2023/10/26 03:43:02;;;;;;;30.30;14.40;;;8.90;99.90;;;;;;5063919;28;20031;-83
2023/10/26 03:45:28;;;;;;;53.13;19.50;;;8.90;99.90;;;;;;5077658;28;20031;-84
2023/10/26 03:47:54;;;;;;;37.58;22.63;;;8.90;99.90;;;;;;5082935;28;20042;-83
2023/10/26 03:50:20;;;;;;;37.83;21.33;;;8.80;99.90;;;;;;5078906;28;20042;-83
2023/10/26 03:52:46;;;;;;;40.17;22.95;;;8.80;99.90;;;;;;5085240;28;20019;-83
2023/10/26 03:55:14;;;;;;;40.45;23.70;;;8.80;99.90;;;;;;5079931;28;20016;-83
2023/10/26 03:57:40;;;;;;;33.05;19.98;;;8.70;99.90;;;;;;5078768;28;20016;-83
2023/10/26 04:00:16;;;;;;;50.67;27.08;;;8.70;99.90;;;;;;5111816;28;20364;-83
2023/10/26 04:02:41;;;;;;;49.75;27.67;;;8.60;99.90;;;;;;5080301;28;20611;-83
2023/10/26 04:05:07;;;;;;;55.47;29.83;;;8.50;99.90;;;;;;5077421;28;20028;-83
2023/10/26 04:07:34;;;;;;;58.35;29.52;;;8.50;99.90;;;;;;5079017;28;20031;-83
2023/10/26 04:09:59;;;;;;;65.45;31.35;;;8.40;99.90;;;;;;5085432;28;20535;-82
2023/10/26 04:12:25;;;;;;;64.13;31.52;;;8.40;99.90;;;;;;5084263;28;20032;-83
2023/10/26 04:15:09;;;;;;;61.67;30.38;;;8.40;99.90;;;;;;5082291;28;20019;-83
2023/10/26 04:17:35;;;;;;;67.85;31.13;;;8.40;99.90;;;;;;5086007;28;20027;-83
2023/10/26 04:20:01;;;;;;;65.57;31.40;;;8.40;99.90;;;;;;5084276;28;20463;-83
2023/10/26 04:22:27;;;;;;;58.63;30.40;;;8.30;99.90;;;;;;5066199;28;20126;-82
2023/10/26 04:25:05;;;;;;;85.47;41.22;;;8.30;99.90;;;;;;5069178;28;20030;-82
2023/10/26 04:27:32;;;;;;;61.05;31.50;;;8.30;99.90;;;;;;5088209;28;20573;-83
2023/10/26 04:29:58;;;;;;;67.43;33.22;;;8.30;99.90;;;;;;5085757;28;20118;-82
2023/10/26 04:32:24;;;;;;;71.35;32.53;;;8.20;99.90;;;;;;5080380;28;20059;-83
2023/10/26 04:34:49;;;;;;;64.00;31.80;;;8.20;99.90;;;;;;5071161;28;20058;-82
2023/10/26 04:37:15;;;;;;;60.22;29.23;;;8.10;99.90;;;;;;5081802;28;20830;-83
2023/10/26 04:39:43;;;;;;;58.63;30.88;;;8.20;99.90;;;;;;5073364;28;20062;-82
2023/10/26 04:42:10;;;;;;;65.78;32.28;;;8.20;99.90;;;;;;5083451;28;20435;-83
2023/10/26 04:44:36;;;;;;;69.53;32.90;;;8.10;99.90;;;;;;5118587;27;20485;-82
2023/10/26 04:47:03;;;;;;;66.60;32.28;;;8.10;99.90;;;;;;5084375;28;20517;-82
2023/10/26 04:49:28;;;;;;;59.13;30.20;;;8.10;99.90;;;;;;5085450;28;20478;-83
2023/10/26 04:51:54;;;;;;;66.25;31.45;;;8.10;99.90;;;;;;5083680;28;20031;-83
2023/10/26 04:54:20;;;;;;;70.13;32.10;;;8.10;99.90;;;;;;5081430;28;20063;-83
2023/10/26 04:56:45;;;;;;;57.13;28.80;;;8.10;99.90;;;;;;5086066;28;20020;-83
2023/10/26 04:59:12;;;;;;;63.58;30.92;;;8.10;99.90;;;;;;5061064;28;20089;-83
2023/10/26 05:01:47;;;;;;;61.20;27.83;;;8.10;99.90;;;;;;5104392;28;20058;-83
2023/10/26 05:04:13;;;;;;;64.80;28.25;;;8.00;99.90;;;;;;5078094;28;20024;-83
2023/10/26 05:06:38;;;;;;;68.18;29.38;;;8.00;99.90;;;;;;5077432;28;20034;-83
2023/10/26 05:09:05;;;;;;;55.53;27.98;;;7.90;99.90;;;;;;5085306;28;20039;-83
2023/10/26 05:11:31;;;;;;;54.42;25.92;;;7.80;99.90;;;;;;5101041;28;20093;-83
2023/10/26 05:13:57;;;;;;;62.15;26.70;;;7.80;99.90;;;;;;5079785;28;20119;-83
2023/10/26 05:16:22;;;;;;;69.05;27.25;;;7.80;99.90;;;;;;5102337;28;20775;-83
2023/10/26 05:18:48;;;;;;;59.08;26.85;;;7.80;99.90;;;;;;5065375;28;20540;-83
2023/10/26 05:21:14;;;;;;;67.80;29.13;;;7.80;99.90;;;;;;5085149;28;20058;-83
2023/10/26 05:23:39;;;;;;;55.70;25.52;;;7.80;99.90;;;;;;5067899;28;20055;-83
2023/10/26 05:26:05;;;;;;;56.10;24.90;;;7.80;99.90;;;;;;5083767;28;20510;-83
2023/10/26 05:28:31;;;;;;;56.88;25.83;;;7.80;99.90;;;;;;5081196;28;20024;-82
2023/10/26 05:30:57;;;;;;;64.80;27.13;;;7.80;99.90;;;;;;5086252;28;20040;-83
2023/10/26 05:33:22;;;;;;;64.25;27.58;;;7.70;99.90;;;;;;5082240;28;20119;-83
2023/10/26 05:35:48;;;;;;;68.20;30.23;;;7.80;99.90;;;;;;5087994;28;20028;-83
2023/10/26 05:38:18;;;;;;;65.47;27.88;;;7.80;99.90;;;;;;5082917;28;20177;-83
2023/10/26 05:40:54;;;;;;;72.03;30.83;;;7.80;99.90;;;;;;5080079;28;20048;-83
2023/10/26 05:43:19;;;;;;;76.43;30.15;;;7.80;99.90;;;;;;5076563;28;20497;-83
2023/10/26 05:45:45;;;;;;;64.53;29.00;;;7.80;99.90;;;;;;5072298;28;20119;-83
2023/10/26 05:48:11;;;;;;;71.15;31.30;;;7.80;99.90;;;;;;5095366;28;20122;-83
2023/10/26 05:50:41;;;;;;;70.43;30.23;;;7.80;99.90;;;;;;5087335;28;20126;-83
2023/10/26 05:53:10;;;;;;;66.00;28.85;;;7.80;99.90;;;;;;5081359;28;20028;-83
2023/10/26 05:55:36;;;;;;;78.55;29.83;;;7.80;99.90;;;;;;5063410;28;20026;-83
2023/10/26 05:58:03;;;;;;;66.25;30.88;;;7.80;99.90;;;;;;5084756;28;20028;-83
2023/10/26 06:00:29;;;;;;;79.90;31.20;;;7.80;99.90;;;;;;5066637;28;20064;-83
2023/10/26 06:02:55;;;;;;;77.28;30.75;;;7.90;99.90;;;;;;5094514;28;20031;-83
2023/10/26 06:05:21;;;;;;;72.10;29.58;;;7.90;99.90;;;;;;5062693;28;20103;-83
2023/10/26 06:07:46;;;;;;;64.85;28.40;;;7.90;99.90;;;;;;5087630;28;20035;-84
2023/10/26 06:10:12;;;;;;;70.32;28.80;;;7.90;99.90;;;;;;5070452;28;20035;-83
2023/10/26 06:12:38;;;;;;;74.13;31.15;;;7.90;99.90;;;;;;5061542;28;20074;-84
2023/10/26 06:15:04;;;;;;;74.93;29.30;;;8.00;99.90;;;;;;5082386;28;20414;-83
2023/10/26 06:17:30;;;;;;;77.65;30.83;;;8.00;99.90;;;;;;5067560;28;20049;-83
2023/10/26 06:19:55;;;;;;;79.22;31.10;;;8.00;99.90;;;;;;5066042;28;20143;-83
2023/10/26 06:22:21;;;;;;;73.40;30.02;;;8.00;99.90;;;;;;5062281;28;20043;-83
2023/10/26 06:24:47;;;;;;;81.82;30.42;;;8.10;99.90;;;;;;5107440;28;20585;-83
2023/10/26 06:27:13;;;;;;;85.30;30.73;;;8.00;99.90;;;;;;5085667;28;20040;-83
2023/10/26 06:29:39;;;;;;;82.25;30.77;;;8.00;99.90;;;;;;5069325;28;20147;-83
2023/10/26 06:32:05;;;;;;;74.97;30.13;;;8.00;99.90;;;;;;5070322;28;20407;-83
2023/10/26 06:34:31;;;;;;;76.57;29.08;;;8.10;99.90;;;;;;5067216;28;20474;-82
2023/10/26 06:36:56;;;;;;;83.25;29.20;;;8.10;99.90;;;;;;5072781;28;20028;-83
2023/10/26 06:39:23;;;;;;;69.28;27.17;;;8.10;99.90;;;;;;5085181;28;20840;-83
2023/10/26 06:41:48;;;;;;;62.25;26.88;;;8.10;99.90;;;;;;5109132;28;20474;-82
2023/10/26 06:44:16;;;;;;;58.05;25.45;;;8.20;99.90;;;;;;5100134;27;20538;-83
2023/10/26 06:46:42;;;;;;;57.55;25.83;;;8.30;99.90;;;;;;5108350;28;20115;-83
2023/10/26 06:49:07;;;;;;;64.47;27.00;;;8.20;99.90;;;;;;5060458;28;20067;-83
2023/10/26 06:51:33;;;;;;;68.45;32.95;;;8.20;99.90;;;;;;5087695;28;20035;-83
2023/10/26 06:53:59;;;;;;;80.72;32.72;;;8.30;99.90;;;;;;5085645;28;20046;-83
2023/10/26 06:56:25;;;;;;;73.30;29.92;;;8.30;99.90;;;;;;5102898;28;20463;-82
2023/10/26 06:58:50;;;;;;;59.80;26.58;;;8.30;99.90;;;;;;5061433;28;20059;-83
2023/10/26 07:01:16;;;;;;;67.28;27.23;;;8.30;99.90;;;;;;5061512;28;20747;-83
2023/10/26 07:03:42;;;;;;;57.67;26.92;;;8.40;99.90;;;;;;5088995;28;20034;-83
2023/10/26 07:06:49;;;;;;;64.88;29.27;;;8.40;99.90;;;;;;5069004;28;20055;-83
2023/10/26 07:09:15;;;;;;;66.55;28.60;;;8.40;99.90;;;;;;5080668;28;20040;-84
2023/10/26 07:11:42;;;;;;;62.25;27.58;;;8.40;99.90;;;;;;5077003;28;20028;-83
2023/10/26 07:14:08;;;;;;;63.53;28.13;;;8.40;99.90;;;;;;5090478;28;20032;-83
2023/10/26 07:16:34;;;;;;;58.45;26.08;;;8.50;99.90;;;;;;5078685;28;20072;-83
2023/10/26 07:18:59;;;;;;;58.13;24.70;;;8.50;99.90;;;;;;5070214;28;20032;-83
2023/10/26 07:21:26;;;;;;;65.45;26.75;;;8.50;99.90;;;;;;5074192;28;20377;-83
2023/10/26 07:23:53;;;;;;;59.38;26.08;;;8.50;99.90;;;;;;5090409;28;20050;-83
2023/10/26 07:26:19;;;;;;;77.78;30.00;;;8.50;99.90;;;;;;5069619;28;20034;-84
2023/10/26 07:28:45;;;;;;;71.20;30.60;;;8.60;99.90;;;;;;5063131;28;20036;-83
2023/10/26 07:31:20;;;;;;;68.25;28.13;;;8.60;99.90;;;;;;5068944;28;20065;-84
2023/10/26 07:33:46;;;;;;;76.13;31.95;;;8.60;99.90;;;;;;5081201;28;20020;-83
2023/10/26 07:36:12;;;;;;;74.25;30.25;;;8.60;99.90;;;;;;5056724;28;20032;-83
2023/10/26 07:38:38;;;;;;;71.10;28.58;;;8.60;99.90;;;;;;5090666;28;20034;-83
2023/10/26 07:41:05;;;;;;;64.30;26.00;;;8.60;99.90;;;;;;5093994;28;20093;-83
2023/10/26 07:43:31;;;;;;;53.22;24.20;;;8.70;99.90;;;;;;5078302;28;20072;-83
2023/10/26 07:45:58;;;;;;;52.88;24.77;;;8.70;99.90;;;;;;5076708;28;20032;-83
2023/10/26 07:48:23;;;;;;;56.60;25.25;;;8.70;99.90;;;;;;5086065;28;20082;-83
2023/10/26 07:51:17;;;;;;;60.75;25.88;;;8.70;99.90;;;;;;5099414;28;20012;-83
2023/10/26 07:53:43;;;;;;;58.50;24.90;;;8.70;99.90;;;;;;5111279;27;20081;-82
2023/10/26 07:56:08;;;;;;;63.25;25.08;;;8.80;99.90;;;;;;5091506;28;20027;-83
2023/10/26 07:58:34;;;;;;;52.60;24.35;;;8.90;99.90;;;;;;5091715;28;20119;-83
2023/10/26 08:01:05;;;;;;;58.50;25.70;;;8.90;99.90;;;;;;5077394;28;20028;-83
2023/10/26 08:03:31;;;;;;;66.20;25.52;;;9.00;99.90;;;;;;5076726;28;20024;-83
2023/10/26 08:06:00;;;;;;;52.78;24.35;;;9.00;99.90;;;;;;5099172;28;20481;-83
2023/10/26 08:08:27;;;;;;;50.38;24.30;;;8.90;99.90;;;;;;5065196;28;20383;-83
2023/10/26 08:10:53;;;;;;;47.42;22.65;;;8.90;99.90;;;;;;5082589;28;20540;-83
2023/10/26 08:13:18;;;;;;;63.90;25.60;;;9.10;99.90;;;;;;5063946;28;20058;-82
2023/10/26 08:15:44;;;;;;;59.40;26.30;;;9.30;99.90;;;;;;5061907;28;20105;-83
2023/10/26 08:18:54;;;;;;;63.90;30.27;;;9.20;99.90;;;;;;5067939;28;20035;-83
2023/10/26 08:21:20;;;;;;;57.95;25.95;;;9.10;99.90;;;;;;5062954;28;20056;-83
2023/10/26 08:23:45;;;;;;;70.50;28.17;;;9.20;99.90;;;;;;5057889;28;20364;-83
2023/10/26 08:26:11;;;;;;;70.90;30.25;;;9.10;99.90;;;;;;5076955;28;20027;-83
2023/10/26 08:28:37;;;;;;;60.17;27.90;;;9.30;99.90;;;;;;5059631;28;20036;-83
2023/10/26 08:31:06;;;;;;;65.43;29.83;;;9.40;99.90;;;;;;5109575;28;20032;-83
2023/10/26 08:33:35;;;;;;;59.08;30.55;;;9.50;99.90;;;;;;5115739;28;20027;-83
2023/10/26 08:36:04;;;;;;;58.60;30.15;;;9.80;99.90;;;;;;5081342;28;20027;-83
2023/10/26 08:38:29;;;;;;;50.65;25.67;;;10.10;99.90;;;;;;5075248;28;20817;-83
2023/10/26 08:40:55;;;;;;;31.70;17.00;;;10.50;99.90;;;;;;5063522;28;20032;-83
2023/10/26 08:43:22;;;;;;;24.35;17.25;;;10.50;99.90;;;;;;5070064;28;20027;-83
2023/10/26 08:45:48;;;;;;;21.75;15.50;;;10.60;99.90;;;;;;5065684;28;20842;-83
2023/10/26 08:48:18;;;;;;;26.48;17.75;;;10.80;99.90;;;;;;5075907;28;20024;-83
2023/10/26 08:50:48;;;;;;;20.63;13.80;;;10.60;99.90;;;;;;5074483;28;20065;-83
2023/10/26 08:53:15;;;;;;;15.20;10.13;;;10.70;99.90;;;;;;5079398;28;20571;-83
2023/10/26 08:55:42;;;;;;;16.38;11.25;;;10.50;99.90;;;;;;5087113;28;20663;-83
2023/10/26 08:58:09;;;;;;;14.40;9.30;;;10.50;99.90;;;;;;5098984;28;20421;-83
2023/10/26 09:00:40;;;;;;;17.08;14.80;;;10.60;99.90;;;;;;5065482;28;20032;-83
2023/10/26 09:03:06;;;;;;;13.18;9.60;;;10.70;99.90;;;;;;5061806;28;20027;-83
2023/10/26 09:05:32;;;;;;;11.82;7.78;;;10.80;99.90;;;;;;5096934;28;20035;-84
2023/10/26 09:07:57;;;;;;;12.27;7.07;;;10.90;99.90;;;;;;5094943;28;20036;-83
2023/10/26 09:10:31;;;;;;;10.07;7.80;;;10.80;99.90;;;;;;5083981;28;20032;-83
2023/10/26 09:12:59;;;;;;;9.95;6.90;;;10.80;99.90;;;;;;5067613;28;20028;-83
2023/10/26 09:15:25;;;;;;;10.77;5.35;;;10.60;99.90;;;;;;5102100;28;20032;-83
2023/10/26 09:17:53;;;;;;;10.40;6.20;;;10.60;99.90;;;;;;5084114;28;20019;-83
2023/10/26 09:20:24;;;;;;;10.85;6.53;;;10.40;99.90;;;;;;5084818;28;20084;-83
2023/10/26 09:22:50;;;;;;;;;;;10.30;99.90;;;;;;5076243;28;20031;-83
2023/10/26 09:25:17;;;;;;;10.60;8.75;;;10.40;99.90;;;;;;5074901;28;19912;-83
2023/10/26 09:27:45;;;;;;;12.90;8.55;;;10.30;99.90;;;;;;5096066;27;20069;-83
2023/10/26 09:30:30;;;;;;;11.38;7.60;;;10.20;99.90;;;;;;5072660;28;20119;-84
2023/10/26 09:32:57;;;;;;;11.35;7.70;;;10.10;99.90;;;;;;5053754;28;20116;-83
2023/10/26 09:35:27;;;;;;;15.88;9.25;;;10.10;99.90;;;;;;5068082;28;20028;-83
2023/10/26 09:37:53;;;;;;;8.20;7.35;;;10.10;99.90;;;;;;5078093;28;20449;-83
2023/10/26 09:40:22;;;;;;;16.80;9.02;;;10.10;99.90;;;;;;5085525;28;20032;-84
2023/10/26 09:42:49;;;;;;;17.42;9.45;;;10.00;99.90;;;;;;5069523;28;20513;-84
2023/10/26 09:45:18;;;;;;;11.63;8.50;;;10.00;99.90;;;;;;5110110;28;20040;-84
2023/10/26 09:47:47;;;;;;;10.50;7.45;;;10.00;99.90;;;;;;5076213;28;20158;-84
2023/10/26 09:50:16;;;;;;;17.98;9.23;;;9.90;99.90;;;;;;5094337;28;20052;-83
2023/10/26 09:52:42;;;;;;;14.10;8.25;;;9.80;99.90;;;;;;5076988;28;20387;-83
2023/10/26 09:55:10;;;;;;;16.55;9.30;;;9.70;99.90;;;;;;5059374;28;20039;-83
2023/10/26 09:58:09;;;;;;;15.88;9.50;;;9.70;99.90;;;;;;5060030;28;20040;-82
2023/10/26 10:00:35;;;;;;;14.48;8.88;;;9.60;99.90;;;;;;5053754;28;20384;-83
2023/10/26 10:03:29;;;;;;;17.98;11.50;;;9.50;99.90;;;;;;5076998;28;20039;-84
2023/10/26 10:05:54;;;;;;;14.38;9.35;;;9.40;99.90;;;;;;5066832;28;20185;-83
2023/10/26 10:08:58;;;;;;;15.18;10.40;;;9.40;99.90;;;;;;5090811;28;20128;-83
2023/10/26 10:11:30;;;;;;;15.27;9.55;;;9.30;99.90;;;;;;5075808;28;20020;-83
2023/10/26 10:13:55;;;;;;;15.45;9.52;;;9.30;99.90;;;;;;5093587;28;20028;-83
2023/10/26 10:16:33;;;;;;;12.23;9.13;;;9.30;99.90;;;;;;5059863;28;20027;-83
2023/10/26 10:19:18;;;;;;;15.23;10.00;;;9.30;99.90;;;;;;5062271;28;20044;-83
2023/10/26 10:21:44;;;;;;;25.60;15.73;;;9.20;99.90;;;;;;5075492;28;20023;-83
2023/10/26 10:24:30;;;;;;;14.98;10.00;;;9.20;99.90;;;;;;5067589;28;20558;-83
2023/10/26 10:27:13;;;;;;;16.15;9.88;;;9.30;99.90;;;;;;5074966;28;20032;-83
2023/10/26 10:29:42;;;;;;;19.30;9.77;;;9.30;99.90;;;;;;5068310;28;20071;-83
2023/10/26 10:32:13;;;;;;;16.13;9.13;;;9.30;99.90;;;;;;5080940;28;20066;-83
2023/10/26 10:38:13;;;;;;;22.17;12.15;;;9.40;99.90;;;;;;5105336;27;20071;-83
2023/10/26 10:40:54;;;;;;;19.70;11.10;;;9.40;99.90;;;;;;5082375;28;20035;-83
2023/10/26 10:43:33;;;;;;;16.77;10.65;;;9.60;99.90;;;;;;5065194;28;20032;-83
2023/10/26 10:46:25;;;;;;;12.57;9.95;;;9.80;99.90;;;;;;5065199;28;20040;-83
2023/10/26 10:49:08;;;;;;;11.60;8.38;;;9.90;99.90;;;;;;5065451;28;20115;-83
2023/10/26 10:51:41;;;;;;;15.70;9.45;;;10.00;99.90;;;;;;5113073;27;20039;-83
2023/10/26 10:54:13;;;;;;;16.10;8.52;;;10.00;99.90;;;;;;5087187;28;20030;-83
2023/10/26 10:56:41;;;;;;;12.38;6.85;;;10.00;99.90;;;;;;5079795;28;20032;-83
2023/10/26 10:59:17;;;;;;;8.45;7.50;;;10.00;99.90;;;;;;5082577;28;20039;-83
2023/10/26 11:01:43;;;;;;;7.78;6.97;;;10.10;99.90;;;;;;5100258;28;20056;-83
2023/10/26 11:04:12;;;;;;;9.45;6.57;;;10.20;99.90;;;;;;5065980;28;20066;-83
2023/10/26 11:06:46;;;;;;;9.88;7.45;;;10.30;99.90;;;;;;5064430;28;20494;-83
2023/10/26 11:09:31;;;;;;;7.70;6.57;;;10.30;99.90;;;;;;5061850;28;20114;-82
2023/10/26 11:12:08;;;;;;;10.82;7.65;;;10.40;99.90;;;;;;5066713;28;20020;-83
2023/10/26 11:14:33;;;;;;;10.13;8.30;;;10.50;99.90;;;;;;5064198;28;20104;-83
2023/10/26 11:17:00;;;;;;;10.00;8.55;;;10.60;99.90;;;;;;5067670;28;20114;-83
2023/10/26 11:19:25;;;;;;;9.23;7.43;;;10.70;99.90;;;;;;5114640;27;20509;-83
2023/10/26 11:21:55;;;;;;;11.25;8.70;;;10.80;99.90;;;;;;5061097;28;20028;-83
2023/10/26 11:24:30;;;;;;;11.48;8.40;;;10.90;99.90;;;;;;5083213;28;20036;-83
2023/10/26 11:27:09;;;;;;;8.48;7.68;;;10.80;99.90;;;;;;5086477;28;20039;-83
2023/10/26 11:29:36;;;;;;;9.02;8.05;;;10.80;99.90;;;;;;5078070;28;20040;-84
2023/10/26 11:32:02;;;;;;;14.02;9.75;;;10.70;99.90;;;;;;5081859;28;20016;-83
2023/10/26 11:34:28;;;;;;;13.70;9.65;;;10.70;99.90;;;;;;5063854;28;20076;-83
2023/10/26 11:36:54;;;;;;;12.18;9.77;;;10.70;99.90;;;;;;5065794;28;20030;-83
2023/10/26 11:39:24;;;;;;;13.35;11.48;;;10.70;99.90;;;;;;5098734;28;20050;-83
2023/10/26 11:41:54;;;;;;;12.27;10.38;;;10.70;99.90;;;;;;5078663;28;20538;-84
2023/10/26 11:44:27;;;;;;;16.05;10.65;;;10.60;99.90;;;;;;5092657;28;20159;-82
2023/10/26 11:46:57;;;;;;;17.58;12.35;;;10.50;99.90;;;;;;5090714;28;20383;-83
2023/10/26 11:49:37;;;;;;;16.90;13.73;;;10.50;99.90;;;;;;5086084;28;20398;-83
2023/10/26 11:52:03;;;;;;;21.67;15.80;;;10.50;99.90;;;;;;5077469;28;20024;-83
2023/10/26 11:54:29;;;;;;;47.28;15.93;;;10.50;99.90;;;;;;5095194;28;20035;-83
2023/10/26 11:56:55;;;;;;;24.38;16.17;;;10.40;99.90;;;;;;5064369;28;20074;-84
2023/10/26 11:59:21;;;;;;;17.50;14.10;;;10.30;99.90;;;;;;5098662;28;20122;-83
2023/10/26 12:01:46;;;;;;;13.15;11.35;;;10.30;99.90;;;;;;5063175;28;20551;-84
2023/10/26 12:04:12;;;;;;;13.00;9.73;;;10.20;99.90;;;;;;5060747;28;20668;-84
2023/10/26 12:06:38;;;;;;;10.55;8.80;;;10.10;99.90;;;;;;5065345;28;20119;-83
2023/10/26 12:09:07;;;;;;;15.32;10.48;;;10.10;99.90;;;;;;5095600;28;20352;-83
2023/10/26 12:11:33;;;;;;;10.43;8.85;;;10.00;99.90;;;;;;5067491;28;20024;-83
2023/10/26 12:13:59;;;;;;;12.85;8.77;;;10.10;99.90;;;;;;5097062;28;20047;-84
2023/10/26 12:16:24;;;;;;;31.48;11.30;;;10.00;99.90;;;;;;5078107;28;20032;-83
2023/10/26 12:18:51;;;;;;;24.45;11.00;;;10.00;99.90;;;;;;5081778;28;20178;-83
2023/10/26 12:21:17;;;;;;;20.20;10.82;;;10.10;99.90;;;;;;5063226;28;20031;-83
2023/10/26 12:23:43;;;;;;;12.10;9.52;;;10.20;99.90;;;;;;5093678;28;20502;-84
2023/10/26 12:26:08;;;;;;;61.00;11.82;;;10.20;99.90;;;;;;5063978;28;20501;-84
2023/10/26 12:28:34;;;;;;;60.30;18.90;;;10.30;99.90;;;;;;5077428;28;20159;-83
2023/10/26 12:31:00;;;;;;;20.25;11.50;;;10.50;99.90;;;;;;5064565;28;20031;-83
2023/10/26 12:33:27;;;;;;;48.92;8.65;;;10.60;99.90;;;;;;5102502;28;20065;-83
2023/10/26 12:35:53;;;;;;;145.80;13.30;;;10.60;99.90;;;;;;5069454;28;20030;-83
2023/10/26 12:38:23;;;;;;;83.97;10.38;;;10.60;99.90;;;;;;5070680;28;20122;-83
2023/10/26 12:40:49;;;;;;;32.78;7.50;;;10.70;99.90;;;;;;5068707;28;20076;-83
2023/10/26 12:43:15;;;;;;;8.10;6.13;;;10.60;99.90;;;;;;5065236;28;20031;-83
2023/10/26 12:45:41;;;;;;;10.82;7.00;;;10.70;99.90;;;;;;5070867;28;20023;-83
2023/10/26 12:48:06;;;;;;;7.47;6.15;;;10.70;99.90;;;;;;5066712;28;20046;-83